sensor_id;sensor_type;location;lat;lon;timestamp;P1;durP1;ratioP1;P2;durP2;ratioP2
63581;SDS011;49727;51.078;17.066;2022-09-03T00:17:17;3.53;;;1.50;;
63581;SDS011;49727;51.078;17.066;2022-09-03T00:32:23;5.23;;;1.77;;
63581;SDS011;49727;51.078;17.066;2022-09-03T01:48:33;6.47;;;1.77;;
63581;SDS011;49727;51.078;17.066;2022-09-03T02:18:39;4.60;;;1.80;;
63581;SDS011;49727;51.078;17.066;2022-09-03T02:33:43;6.47;;;2.60;;
63581;SDS011;49727;51.078;17.066;2022-09-03T02:48:45;4.67;;;2.37;;
63581;SDS011;49727;51.078;17.066;2022-09-03T03:03:45;5.65;;;2.00;;
63581;SDS011;49727;51.078;17.066;2022-09-03T03:18:46;7.38;;;2.33;;
63581;SDS011;49727;51.078;17.066;2022-09-03T03:33:53;4.30;;;2.03;;
63581;SDS011;49727;51.078;17.066;2022-09-03T03:48:54;3.80;;;2.37;;
63581;SDS011;49727;51.078;17.066;2022-09-03T04:03:55;4.30;;;2.45;;
63581;SDS011;49727;51.078;17.066;2022-09-03T04:18:56;4.43;;;2.33;;
63581;SDS011;49727;51.078;17.066;2022-09-03T04:33:57;7.57;;;3.00;;
63581;SDS011;49727;51.078;17.066;2022-09-03T04:48:58;7.35;;;2.72;;
63581;SDS011;49727;51.078;17.066;2022-09-03T05:03:58;3.25;;;2.03;;
63581;SDS011;49727;51.078;17.066;2022-09-03T05:18:59;5.27;;;2.30;;
63581;SDS011;49727;51.078;17.066;2022-09-03T05:34:01;4.70;;;2.20;;
63581;SDS011;49727;51.078;17.066;2022-09-03T05:49:03;6.33;;;1.93;;
63581;SDS011;49727;51.078;17.066;2022-09-03T06:04:09;3.07;;;1.90;;
63581;SDS011;49727;51.078;17.066;2022-09-03T06:19:11;4.83;;;2.23;;
63581;SDS011;49727;51.078;17.066;2022-09-03T06:34:13;5.47;;;2.63;;
63581;SDS011;49727;51.078;17.066;2022-09-03T06:49:15;2.33;;;1.57;;
63581;SDS011;49727;51.078;17.066;2022-09-03T07:04:15;3.90;;;2.33;;
63581;SDS011;49727;51.078;17.066;2022-09-03T07:19:16;5.55;;;1.90;;
63581;SDS011;49727;51.078;17.066;2022-09-03T07:34:17;4.40;;;2.23;;
63581;SDS011;49727;51.078;17.066;2022-09-03T08:04:20;5.00;;;2.10;;
63581;SDS011;49727;51.078;17.066;2022-09-03T08:19:21;9.27;;;2.80;;
63581;SDS011;49727;51.078;17.066;2022-09-03T08:34:22;4.60;;;2.40;;
63581;SDS011;49727;51.078;17.066;2022-09-03T09:34:54;4.50;;;1.93;;
63581;SDS011;49727;51.078;17.066;2022-09-03T09:49:56;5.18;;;2.30;;
63581;SDS011;49727;51.078;17.066;2022-09-03T10:05:11;5.40;;;2.30;;
63581;SDS011;49727;51.078;17.066;2022-09-03T10:20:16;4.67;;;1.90;;
63581;SDS011;49727;51.078;17.066;2022-09-03T10:35:38;4.20;;;1.90;;
63581;SDS011;49727;51.078;17.066;2022-09-03T10:50:46;5.33;;;1.90;;
63581;SDS011;49727;51.078;17.066;2022-09-03T11:06:00;7.17;;;2.13;;
63581;SDS011;49727;51.078;17.066;2022-09-03T11:21:07;6.37;;;2.23;;
63581;SDS011;49727;51.078;17.066;2022-09-03T11:36:13;4.93;;;1.97;;
63581;SDS011;49727;51.078;17.066;2022-09-03T11:51:30;4.43;;;2.40;;
63581;SDS011;49727;51.078;17.066;2022-09-03T12:21:51;7.23;;;2.67;;
63581;SDS011;49727;51.078;17.066;2022-09-03T12:36:52;7.95;;;2.35;;
63581;SDS011;49727;51.078;17.066;2022-09-03T12:51:57;4.23;;;2.40;;
63581;SDS011;49727;51.078;17.066;2022-09-03T13:53:19;3.97;;;2.70;;
63581;SDS011;49727;51.078;17.066;2022-09-03T14:24:04;6.20;;;2.67;;
63581;SDS011;49727;51.078;17.066;2022-09-03T14:39:13;5.70;;;2.70;;
63581;SDS011;49727;51.078;17.066;2022-09-03T14:54:24;5.63;;;2.80;;
63581;SDS011;49727;51.078;17.066;2022-09-03T15:09:51;5.23;;;2.50;;
63581;SDS011;49727;51.078;17.066;2022-09-03T15:40:48;6.67;;;3.00;;
63581;SDS011;49727;51.078;17.066;2022-09-03T16:11:17;4.83;;;3.23;;
63581;SDS011;49727;51.078;17.066;2022-09-03T16:26:39;6.23;;;3.70;;
63581;SDS011;49727;51.078;17.066;2022-09-03T16:41:50;7.23;;;3.60;;
63581;SDS011;49727;51.078;17.066;2022-09-03T17:59:01;9.60;;;4.13;;
63581;SDS011;49727;51.078;17.066;2022-09-03T18:29:21;8.63;;;5.53;;
63581;SDS011;49727;51.078;17.066;2022-09-03T19:00:29;7.23;;;4.40;;
63581;SDS011;49727;51.078;17.066;2022-09-03T19:46:57;12.03;;;7.20;;
63581;SDS011;49727;51.078;17.066;2022-09-03T20:02:18;13.77;;;5.80;;
63581;SDS011;49727;51.078;17.066;2022-09-03T20:48:20;9.13;;;5.47;;
63581;SDS011;49727;51.078;17.066;2022-09-03T21:18:58;12.07;;;7.07;;
63581;SDS011;49727;51.078;17.066;2022-09-03T21:34:38;9.77;;;6.73;;
63581;SDS011;49727;51.078;17.066;2022-09-03T22:05:07;13.80;;;7.10;;
63581;SDS011;49727;51.078;17.066;2022-09-03T22:20:07;9.38;;;6.70;;
63581;SDS011;49727;51.078;17.066;2022-09-03T22:35:20;13.57;;;7.93;;
63581;SDS011;49727;51.078;17.066;2022-09-03T22:50:28;11.20;;;7.13;;
63581;SDS011;49727;51.078;17.066;2022-09-03T23:05:35;13.10;;;5.90;;
63581;SDS011;49727;51.078;17.066;2022-09-03T23:36:09;7.30;;;5.57;;
